sensor_id;sensor_type;location;lat;lon;timestamp;temperature;humidity
21298;DHT22;10808;48.010;11.326;2024-02-26T00:00:45;3.80;99.90
21298;DHT22;10808;48.010;11.326;2024-02-26T00:03:12;3.80;99.90
21298;DHT22;10808;48.010;11.326;2024-02-26T00:05:38;3.80;99.90
21298;DHT22;10808;48.010;11.326;2024-02-26T00:08:05;3.80;99.90
21298;DHT22;10808;48.010;11.326;2024-02-26T00:10:31;3.80;99.90
21298;DHT22;10808;48.010;11.326;2024-02-26T00:12:57;3.80;99.90
21298;DHT22;10808;48.010;11.326;2024-02-26T00:15:23;3.90;99.90
21298;DHT22;10808;48.010;11.326;2024-02-26T00:17:49;3.90;99.90
21298;DHT22;10808;48.010;11.326;2024-02-26T00:20:15;3.80;99.90
21298;DHT22;10808;48.010;11.326;2024-02-26T00:22:41;3.90;99.90
21298;DHT22;10808;48.010;11.326;2024-02-26T00:25:07;3.90;99.90
21298;DHT22;10808;48.010;11.326;2024-02-26T00:27:33;3.90;99.90
21298;DHT22;10808;48.010;11.326;2024-02-26T00:29:59;3.90;99.90
21298;DHT22;10808;48.010;11.326;2024-02-26T00:32:25;3.90;99.90
21298;DHT22;10808;48.010;11.326;2024-02-26T00:34:51;3.90;99.90
21298;DHT22;10808;48.010;11.326;2024-02-26T00:37:17;3.90;99.90
21298;DHT22;10808;48.010;11.326;2024-02-26T00:39:43;3.90;99.90
21298;DHT22;10808;48.010;11.326;2024-02-26T00:42:10;3.90;99.90
21298;DHT22;10808;48.010;11.326;2024-02-26T00:44:36;3.90;99.90
21298;DHT22;10808;48.010;11.326;2024-02-26T00:47:02;3.90;99.90
21298;DHT22;10808;48.010;11.326;2024-02-26T00:49:28;3.90;99.90
21298;DHT22;10808;48.010;11.326;2024-02-26T00:51:54;3.80;99.90
21298;DHT22;10808;48.010;11.326;2024-02-26T00:54:21;3.80;99.90
21298;DHT22;10808;48.010;11.326;2024-02-26T00:56:47;3.80;99.90
21298;DHT22;10808;48.010;11.326;2024-02-26T00:59:13;3.80;99.90
21298;DHT22;10808;48.010;11.326;2024-02-26T01:01:39;3.80;99.90
21298;DHT22;10808;48.010;11.326;2024-02-26T01:04:05;3.80;99.90
21298;DHT22;10808;48.010;11.326;2024-02-26T01:06:31;3.70;99.90
21298;DHT22;10808;48.010;11.326;2024-02-26T01:08:57;3.70;99.90
21298;DHT22;10808;48.010;11.326;2024-02-26T01:11:27;3.70;99.90
21298;DHT22;10808;48.010;11.326;2024-02-26T01:13:53;3.70;99.90
21298;DHT22;10808;48.010;11.326;2024-02-26T01:16:25;3.70;99.90
21298;DHT22;10808;48.010;11.326;2024-02-26T01:18:51;3.70;99.90
21298;DHT22;10808;48.010;11.326;2024-02-26T01:21:17;3.70;99.90
21298;DHT22;10808;48.010;11.326;2024-02-26T01:23:43;3.70;99.90
21298;DHT22;10808;48.010;11.326;2024-02-26T01:26:09;3.70;99.90
21298;DHT22;10808;48.010;11.326;2024-02-26T01:28:35;3.60;99.90
21298;DHT22;10808;48.010;11.326;2024-02-26T01:31:01;3.60;99.90
21298;DHT22;10808;48.010;11.326;2024-02-26T01:33:31;3.60;99.90
21298;DHT22;10808;48.010;11.326;2024-02-26T01:35:57;3.60;99.90
21298;DHT22;10808;48.010;11.326;2024-02-26T01:38:23;3.60;99.90
21298;DHT22;10808;48.010;11.326;2024-02-26T01:40:49;3.60;99.90
21298;DHT22;10808;48.010;11.326;2024-02-26T01:43:15;3.70;99.90
21298;DHT22;10808;48.010;11.326;2024-02-26T01:45:41;3.70;99.90
21298;DHT22;10808;48.010;11.326;2024-02-26T01:48:07;3.60;99.90
21298;DHT22;10808;48.010;11.326;2024-02-26T01:50:33;3.60;99.90
21298;DHT22;10808;48.010;11.326;2024-02-26T01:53:00;3.60;99.90
21298;DHT22;10808;48.010;11.326;2024-02-26T01:55:26;3.60;99.90
21298;DHT22;10808;48.010;11.326;2024-02-26T01:57:53;3.60;99.90
21298;DHT22;10808;48.010;11.326;2024-02-26T02:00:20;3.60;99.90
21298;DHT22;10808;48.010;11.326;2024-02-26T02:02:47;3.60;99.90
21298;DHT22;10808;48.010;11.326;2024-02-26T02:05:17;3.60;99.90
21298;DHT22;10808;48.010;11.326;2024-02-26T02:07:44;3.60;99.90
21298;DHT22;10808;48.010;11.326;2024-02-26T02:10:10;3.60;99.90
21298;DHT22;10808;48.010;11.326;2024-02-26T02:12:36;3.60;99.90
21298;DHT22;10808;48.010;11.326;2024-02-26T02:15:04;3.60;99.90
21298;DHT22;10808;48.010;11.326;2024-02-26T02:17:31;3.60;99.90
21298;DHT22;10808;48.010;11.326;2024-02-26T02:19:57;3.50;99.90
21298;DHT22;10808;48.010;11.326;2024-02-26T02:22:30;3.50;99.90
21298;DHT22;10808;48.010;11.326;2024-02-26T02:24:57;3.50;99.90
21298;DHT22;10808;48.010;11.326;2024-02-26T02:27:25;3.50;99.90
21298;DHT22;10808;48.010;11.326;2024-02-26T02:29:52;3.50;99.90
21298;DHT22;10808;48.010;11.326;2024-02-26T02:32:19;3.50;99.90
21298;DHT22;10808;48.010;11.326;2024-02-26T02:34:45;3.40;99.90
21298;DHT22;10808;48.010;11.326;2024-02-26T02:37:12;3.40;99.90
21298;DHT22;10808;48.010;11.326;2024-02-26T02:39:38;3.40;99.90
21298;DHT22;10808;48.010;11.326;2024-02-26T02:42:04;3.40;99.90
21298;DHT22;10808;48.010;11.326;2024-02-26T02:44:30;3.50;99.90
21298;DHT22;10808;48.010;11.326;2024-02-26T02:46:56;3.40;99.90
21298;DHT22;10808;48.010;11.326;2024-02-26T02:49:22;3.40;99.90
21298;DHT22;10808;48.010;11.326;2024-02-26T02:51:49;3.40;99.90
21298;DHT22;10808;48.010;11.326;2024-02-26T02:54:15;3.40;99.90
21298;DHT22;10808;48.010;11.326;2024-02-26T02:56:41;3.40;99.90
21298;DHT22;10808;48.010;11.326;2024-02-26T02:59:07;3.40;99.90
21298;DHT22;10808;48.010;11.326;2024-02-26T03:01:33;3.40;99.90
21298;DHT22;10808;48.010;11.326;2024-02-26T03:03:59;3.40;99.90
21298;DHT22;10808;48.010;11.326;2024-02-26T03:06:25;3.40;99.90
21298;DHT22;10808;48.010;11.326;2024-02-26T03:08:54;3.40;99.90
21298;DHT22;10808;48.010;11.326;2024-02-26T03:11:20;3.40;99.90
21298;DHT22;10808;48.010;11.326;2024-02-26T03:13:46;3.50;99.90
21298;DHT22;10808;48.010;11.326;2024-02-26T03:16:12;3.50;99.90
21298;DHT22;10808;48.010;11.326;2024-02-26T03:18:39;3.50;99.90
21298;DHT22;10808;48.010;11.326;2024-02-26T03:21:06;3.60;99.90
21298;DHT22;10808;48.010;11.326;2024-02-26T03:23:32;3.60;99.90
21298;DHT22;10808;48.010;11.326;2024-02-26T03:26:05;3.60;99.90
21298;DHT22;10808;48.010;11.326;2024-02-26T03:28:31;3.60;99.90
21298;DHT22;10808;48.010;11.326;2024-02-26T03:30:59;3.60;99.90
21298;DHT22;10808;48.010;11.326;2024-02-26T03:33:25;3.60;99.90
21298;DHT22;10808;48.010;11.326;2024-02-26T03:35:51;3.60;99.90
21298;DHT22;10808;48.010;11.326;2024-02-26T03:38:17;3.70;99.90
21298;DHT22;10808;48.010;11.326;2024-02-26T03:40:43;3.70;99.90
21298;DHT22;10808;48.010;11.326;2024-02-26T03:43:09;3.70;99.90
21298;DHT22;10808;48.010;11.326;2024-02-26T03:45:35;3.70;99.90
21298;DHT22;10808;48.010;11.326;2024-02-26T03:48:01;3.60;99.90
21298;DHT22;10808;48.010;11.326;2024-02-26T03:50:27;3.70;99.90
21298;DHT22;10808;48.010;11.326;2024-02-26T03:52:54;3.70;99.90
21298;DHT22;10808;48.010;11.326;2024-02-26T03:55:20;3.70;99.90
21298;DHT22;10808;48.010;11.326;2024-02-26T03:57:53;3.70;99.90
21298;DHT22;10808;48.010;11.326;2024-02-26T04:00:19;3.70;99.90
21298;DHT22;10808;48.010;11.326;2024-02-26T04:02:49;3.70;99.90
21298;DHT22;10808;48.010;11.326;2024-02-26T04:05:15;3.70;99.90
21298;DHT22;10808;48.010;11.326;2024-02-26T04:07:41;3.70;99.90
21298;DHT22;10808;48.010;11.326;2024-02-26T04:10:10;3.70;99.90
21298;DHT22;10808;48.010;11.326;2024-02-26T04:12:40;3.70;99.90
21298;DHT22;10808;48.010;11.326;2024-02-26T04:15:10;3.70;99.90
21298;DHT22;10808;48.010;11.326;2024-02-26T04:17:37;3.70;99.90
21298;DHT22;10808;48.010;11.326;2024-02-26T04:20:04;3.70;99.90
21298;DHT22;10808;48.010;11.326;2024-02-26T04:22:31;3.70;99.90
21298;DHT22;10808;48.010;11.326;2024-02-26T04:24:57;3.70;99.90
21298;DHT22;10808;48.010;11.326;2024-02-26T04:27:23;3.60;99.90
21298;DHT22;10808;48.010;11.326;2024-02-26T04:29:50;3.60;99.90
21298;DHT22;10808;48.010;11.326;2024-02-26T04:32:16;3.60;99.90
21298;DHT22;10808;48.010;11.326;2024-02-26T04:34:42;3.60;99.90
21298;DHT22;10808;48.010;11.326;2024-02-26T04:37:08;3.60;99.90
21298;DHT22;10808;48.010;11.326;2024-02-26T04:39:34;3.50;99.90
21298;DHT22;10808;48.010;11.326;2024-02-26T04:42:01;3.50;99.90
21298;DHT22;10808;48.010;11.326;2024-02-26T04:44:29;3.50;99.90
21298;DHT22;10808;48.010;11.326;2024-02-26T04:46:56;3.50;99.90
21298;DHT22;10808;48.010;11.326;2024-02-26T04:49:22;3.50;99.90
21298;DHT22;10808;48.010;11.326;2024-02-26T04:51:48;3.50;99.90
21298;DHT22;10808;48.010;11.326;2024-02-26T04:54:14;3.50;99.90
21298;DHT22;10808;48.010;11.326;2024-02-26T04:56:40;3.50;99.90
21298;DHT22;10808;48.010;11.326;2024-02-26T04:59:06;3.40;99.90
21298;DHT22;10808;48.010;11.326;2024-02-26T05:01:32;3.40;99.90
21298;DHT22;10808;48.010;11.326;2024-02-26T05:03:58;3.40;99.90
21298;DHT22;10808;48.010;11.326;2024-02-26T05:06:24;3.40;99.90
21298;DHT22;10808;48.010;11.326;2024-02-26T05:08:50;3.40;99.90
21298;DHT22;10808;48.010;11.326;2024-02-26T05:11:16;3.40;99.90
21298;DHT22;10808;48.010;11.326;2024-02-26T05:13:44;3.40;99.90
21298;DHT22;10808;48.010;11.326;2024-02-26T05:16:11;3.40;99.90
21298;DHT22;10808;48.010;11.326;2024-02-26T05:18:37;3.40;99.90
21298;DHT22;10808;48.010;11.326;2024-02-26T05:21:03;3.40;99.90
21298;DHT22;10808;48.010;11.326;2024-02-26T05:23:29;3.50;99.90
21298;DHT22;10808;48.010;11.326;2024-02-26T05:25:55;3.40;99.90
21298;DHT22;10808;48.010;11.326;2024-02-26T05:28:21;3.50;99.90
21298;DHT22;10808;48.010;11.326;2024-02-26T05:30:48;3.50;99.90
21298;DHT22;10808;48.010;11.326;2024-02-26T05:33:14;3.50;99.90
21298;DHT22;10808;48.010;11.326;2024-02-26T05:35:40;3.50;99.90
21298;DHT22;10808;48.010;11.326;2024-02-26T05:38:06;3.50;99.90
21298;DHT22;10808;48.010;11.326;2024-02-26T05:40:32;3.50;99.90
21298;DHT22;10808;48.010;11.326;2024-02-26T05:42:58;3.50;99.90
21298;DHT22;10808;48.010;11.326;2024-02-26T05:45:24;3.60;99.90
21298;DHT22;10808;48.010;11.326;2024-02-26T05:47:50;3.60;99.90
21298;DHT22;10808;48.010;11.326;2024-02-26T05:50:20;3.60;99.90
21298;DHT22;10808;48.010;11.326;2024-02-26T05:52:46;3.70;99.90
21298;DHT22;10808;48.010;11.326;2024-02-26T05:55:12;3.70;99.90
21298;DHT22;10808;48.010;11.326;2024-02-26T05:57:39;3.80;99.90
21298;DHT22;10808;48.010;11.326;2024-02-26T06:00:06;3.80;99.90
21298;DHT22;10808;48.010;11.326;2024-02-26T06:02:38;3.80;99.90
21298;DHT22;10808;48.010;11.326;2024-02-26T06:05:05;3.90;99.90
21298;DHT22;10808;48.010;11.326;2024-02-26T06:07:33;3.90;99.90
21298;DHT22;10808;48.010;11.326;2024-02-26T06:09:59;3.90;99.90
21298;DHT22;10808;48.010;11.326;2024-02-26T06:12:25;4.00;99.90
21298;DHT22;10808;48.010;11.326;2024-02-26T06:14:52;4.00;99.90
21298;DHT22;10808;48.010;11.326;2024-02-26T06:17:18;4.10;99.90
21298;DHT22;10808;48.010;11.326;2024-02-26T06:19:44;4.10;99.90
21298;DHT22;10808;48.010;11.326;2024-02-26T06:22:10;4.20;99.90
21298;DHT22;10808;48.010;11.326;2024-02-26T06:24:36;4.20;99.90
21298;DHT22;10808;48.010;11.326;2024-02-26T06:27:03;4.30;99.90
21298;DHT22;10808;48.010;11.326;2024-02-26T06:29:29;4.30;99.90
21298;DHT22;10808;48.010;11.326;2024-02-26T06:31:55;4.30;99.90
21298;DHT22;10808;48.010;11.326;2024-02-26T06:34:21;4.40;99.90
21298;DHT22;10808;48.010;11.326;2024-02-26T06:36:47;4.40;99.90
21298;DHT22;10808;48.010;11.326;2024-02-26T06:39:13;4.50;99.90
21298;DHT22;10808;48.010;11.326;2024-02-26T06:41:40;4.50;99.90
21298;DHT22;10808;48.010;11.326;2024-02-26T06:44:06;4.60;99.90
21298;DHT22;10808;48.010;11.326;2024-02-26T06:46:32;4.60;99.90
21298;DHT22;10808;48.010;11.326;2024-02-26T06:48:58;4.70;99.90
21298;DHT22;10808;48.010;11.326;2024-02-26T06:51:25;4.70;99.90
21298;DHT22;10808;48.010;11.326;2024-02-26T06:53:51;4.70;99.90
21298;DHT22;10808;48.010;11.326;2024-02-26T06:56:17;4.70;99.90
21298;DHT22;10808;48.010;11.326;2024-02-26T06:58:43;4.80;99.90
21298;DHT22;10808;48.010;11.326;2024-02-26T07:01:11;4.80;99.90
21298;DHT22;10808;48.010;11.326;2024-02-26T07:03:40;4.90;99.90
21298;DHT22;10808;48.010;11.326;2024-02-26T07:06:06;5.00;99.90
21298;DHT22;10808;48.010;11.326;2024-02-26T07:08:32;5.10;99.90
21298;DHT22;10808;48.010;11.326;2024-02-26T07:10:58;5.10;99.90
21298;DHT22;10808;48.010;11.326;2024-02-26T07:13:24;5.20;99.90
21298;DHT22;10808;48.010;11.326;2024-02-26T07:15:50;5.30;99.90
21298;DHT22;10808;48.010;11.326;2024-02-26T07:18:16;5.40;99.90
21298;DHT22;10808;48.010;11.326;2024-02-26T07:20:42;5.40;99.90
21298;DHT22;10808;48.010;11.326;2024-02-26T07:23:08;5.50;99.90
21298;DHT22;10808;48.010;11.326;2024-02-26T07:25:34;5.60;99.90
21298;DHT22;10808;48.010;11.326;2024-02-26T07:28:01;5.70;99.90
21298;DHT22;10808;48.010;11.326;2024-02-26T07:30:27;5.80;99.90
21298;DHT22;10808;48.010;11.326;2024-02-26T07:32:53;5.90;99.90
21298;DHT22;10808;48.010;11.326;2024-02-26T07:35:19;6.00;99.90
21298;DHT22;10808;48.010;11.326;2024-02-26T07:37:48;6.10;99.90
21298;DHT22;10808;48.010;11.326;2024-02-26T07:40:15;6.20;99.90
21298;DHT22;10808;48.010;11.326;2024-02-26T07:42:41;6.30;99.90
21298;DHT22;10808;48.010;11.326;2024-02-26T07:45:07;6.40;99.90
21298;DHT22;10808;48.010;11.326;2024-02-26T07:47:33;6.50;99.90
21298;DHT22;10808;48.010;11.326;2024-02-26T07:50:01;6.60;99.90
21298;DHT22;10808;48.010;11.326;2024-02-26T07:52:27;6.70;99.90
21298;DHT22;10808;48.010;11.326;2024-02-26T07:54:53;6.90;99.90
21298;DHT22;10808;48.010;11.326;2024-02-26T07:57:19;7.00;99.90
21298;DHT22;10808;48.010;11.326;2024-02-26T07:59:47;7.10;99.90
21298;DHT22;10808;48.010;11.326;2024-02-26T08:02:16;7.20;99.90
21298;DHT22;10808;48.010;11.326;2024-02-26T08:04:42;7.30;99.90
21298;DHT22;10808;48.010;11.326;2024-02-26T08:07:08;7.40;99.10
21298;DHT22;10808;48.010;11.326;2024-02-26T08:09:34;7.50;99.00
21298;DHT22;10808;48.010;11.326;2024-02-26T08:12:00;7.60;98.90
21298;DHT22;10808;48.010;11.326;2024-02-26T08:14:26;7.70;98.50
21298;DHT22;10808;48.010;11.326;2024-02-26T08:16:54;7.80;98.50
21298;DHT22;10808;48.010;11.326;2024-02-26T08:19:20;7.90;97.00
21298;DHT22;10808;48.010;11.326;2024-02-26T08:21:46;8.00;96.60
21298;DHT22;10808;48.010;11.326;2024-02-26T08:24:12;8.10;96.30
21298;DHT22;10808;48.010;11.326;2024-02-26T08:26:38;8.20;96.40
21298;DHT22;10808;48.010;11.326;2024-02-26T08:29:04;8.30;96.20
21298;DHT22;10808;48.010;11.326;2024-02-26T08:31:30;8.40;95.50
21298;DHT22;10808;48.010;11.326;2024-02-26T08:33:56;8.60;95.90
21298;DHT22;10808;48.010;11.326;2024-02-26T08:36:24;8.70;96.30
21298;DHT22;10808;48.010;11.326;2024-02-26T08:38:50;8.80;96.20
21298;DHT22;10808;48.010;11.326;2024-02-26T08:41:16;8.90;95.00
21298;DHT22;10808;48.010;11.326;2024-02-26T08:43:42;9.00;95.40
21298;DHT22;10808;48.010;11.326;2024-02-26T08:46:12;9.10;95.80
21298;DHT22;10808;48.010;11.326;2024-02-26T08:48:39;9.30;95.70
21298;DHT22;10808;48.010;11.326;2024-02-26T08:51:06;9.40;95.00
21298;DHT22;10808;48.010;11.326;2024-02-26T08:53:33;9.40;94.50
21298;DHT22;10808;48.010;11.326;2024-02-26T08:55:59;9.50;94.00
21298;DHT22;10808;48.010;11.326;2024-02-26T08:58:25;9.60;94.10
21298;DHT22;10808;48.010;11.326;2024-02-26T09:00:52;9.60;94.10
21298;DHT22;10808;48.010;11.326;2024-02-26T09:03:18;9.70;93.80
21298;DHT22;10808;48.010;11.326;2024-02-26T09:05:44;9.80;94.80
21298;DHT22;10808;48.010;11.326;2024-02-26T09:08:10;9.90;93.80
21298;DHT22;10808;48.010;11.326;2024-02-26T09:10:38;10.00;93.50
21298;DHT22;10808;48.010;11.326;2024-02-26T09:13:04;10.10;94.20
21298;DHT22;10808;48.010;11.326;2024-02-26T09:15:30;10.30;94.60
21298;DHT22;10808;48.010;11.326;2024-02-26T09:17:56;10.40;94.10
21298;DHT22;10808;48.010;11.326;2024-02-26T09:20:22;10.50;93.10
21298;DHT22;10808;48.010;11.326;2024-02-26T09:22:50;10.50;93.10
21298;DHT22;10808;48.010;11.326;2024-02-26T09:25:17;10.60;92.90
21298;DHT22;10808;48.010;11.326;2024-02-26T09:27:43;10.80;93.00
21298;DHT22;10808;48.010;11.326;2024-02-26T09:30:10;10.90;92.90
21298;DHT22;10808;48.010;11.326;2024-02-26T09:32:37;11.10;92.50
21298;DHT22;10808;48.010;11.326;2024-02-26T09:35:18;11.30;92.40
21298;DHT22;10808;48.010;11.326;2024-02-26T09:37:44;11.50;92.10
21298;DHT22;10808;48.010;11.326;2024-02-26T09:40:11;11.60;92.50
21298;DHT22;10808;48.010;11.326;2024-02-26T09:42:43;11.60;91.50
21298;DHT22;10808;48.010;11.326;2024-02-26T09:45:12;11.70;92.30
21298;DHT22;10808;48.010;11.326;2024-02-26T09:47:43;11.90;90.70
21298;DHT22;10808;48.010;11.326;2024-02-26T09:50:11;12.00;90.20
21298;DHT22;10808;48.010;11.326;2024-02-26T09:52:41;12.10;90.60
21298;DHT22;10808;48.010;11.326;2024-02-26T09:55:09;12.30;89.70
21298;DHT22;10808;48.010;11.326;2024-02-26T09:57:38;12.50;90.90
21298;DHT22;10808;48.010;11.326;2024-02-26T10:00:09;12.60;90.20
21298;DHT22;10808;48.010;11.326;2024-02-26T10:02:36;12.70;90.20
21298;DHT22;10808;48.010;11.326;2024-02-26T10:05:05;12.90;91.20
21298;DHT22;10808;48.010;11.326;2024-02-26T10:07:33;13.10;90.50
21298;DHT22;10808;48.010;11.326;2024-02-26T10:09:59;13.20;88.80
21298;DHT22;10808;48.010;11.326;2024-02-26T10:12:26;13.40;87.60
21298;DHT22;10808;48.010;11.326;2024-02-26T10:14:54;13.50;87.80
21298;DHT22;10808;48.010;11.326;2024-02-26T10:17:20;13.50;87.90
21298;DHT22;10808;48.010;11.326;2024-02-26T10:19:46;13.70;88.20
21298;DHT22;10808;48.010;11.326;2024-02-26T10:22:12;13.80;86.20
21298;DHT22;10808;48.010;11.326;2024-02-26T10:24:38;13.90;87.70
21298;DHT22;10808;48.010;11.326;2024-02-26T10:27:05;14.00;86.80
21298;DHT22;10808;48.010;11.326;2024-02-26T10:29:31;14.20;85.70
21298;DHT22;10808;48.010;11.326;2024-02-26T10:31:57;14.30;84.30
21298;DHT22;10808;48.010;11.326;2024-02-26T10:34:23;14.20;83.10
21298;DHT22;10808;48.010;11.326;2024-02-26T10:36:49;14.20;82.90
21298;DHT22;10808;48.010;11.326;2024-02-26T10:39:15;14.30;83.70
21298;DHT22;10808;48.010;11.326;2024-02-26T10:41:43;14.50;82.60
21298;DHT22;10808;48.010;11.326;2024-02-26T10:44:10;14.50;82.80
21298;DHT22;10808;48.010;11.326;2024-02-26T10:46:42;14.60;82.30
21298;DHT22;10808;48.010;11.326;2024-02-26T10:49:14;14.70;82.20
21298;DHT22;10808;48.010;11.326;2024-02-26T10:51:54;14.80;83.50
21298;DHT22;10808;48.010;11.326;2024-02-26T10:54:21;14.90;82.50
21298;DHT22;10808;48.010;11.326;2024-02-26T10:56:50;15.00;83.30
21298;DHT22;10808;48.010;11.326;2024-02-26T10:59:17;15.20;81.60
21298;DHT22;10808;48.010;11.326;2024-02-26T11:01:48;15.20;80.60
21298;DHT22;10808;48.010;11.326;2024-02-26T11:04:16;15.30;81.90
21298;DHT22;10808;48.010;11.326;2024-02-26T11:06:44;15.40;82.20
21298;DHT22;10808;48.010;11.326;2024-02-26T11:09:13;15.70;81.80
21298;DHT22;10808;48.010;11.326;2024-02-26T11:11:40;15.80;80.20
21298;DHT22;10808;48.010;11.326;2024-02-26T11:14:08;15.70;79.10
21298;DHT22;10808;48.010;11.326;2024-02-26T11:16:35;15.60;79.40
21298;DHT22;10808;48.010;11.326;2024-02-26T11:19:03;15.60;82.30
21298;DHT22;10808;48.010;11.326;2024-02-26T11:21:31;16.00;84.20
21298;DHT22;10808;48.010;11.326;2024-02-26T11:24:16;16.30;80.10
21298;DHT22;10808;48.010;11.326;2024-02-26T11:26:53;16.40;80.00
21298;DHT22;10808;48.010;11.326;2024-02-26T11:29:32;16.60;82.10
21298;DHT22;10808;48.010;11.326;2024-02-26T11:32:00;16.70;81.00
21298;DHT22;10808;48.010;11.326;2024-02-26T11:34:27;16.90;80.90
21298;DHT22;10808;48.010;11.326;2024-02-26T11:36:54;17.10;81.70
21298;DHT22;10808;48.010;11.326;2024-02-26T11:39:20;17.40;81.30
21298;DHT22;10808;48.010;11.326;2024-02-26T11:41:46;17.50;81.40
21298;DHT22;10808;48.010;11.326;2024-02-26T11:44:12;17.70;78.40
21298;DHT22;10808;48.010;11.326;2024-02-26T11:46:41;17.80;79.40
21298;DHT22;10808;48.010;11.326;2024-02-26T11:51:54;17.90;78.80
21298;DHT22;10808;48.010;11.326;2024-02-26T11:54:52;18.10;77.80
21298;DHT22;10808;48.010;11.326;2024-02-26T11:59:51;18.30;76.10
21298;DHT22;10808;48.010;11.326;2024-02-26T12:02:40;18.30;74.10
21298;DHT22;10808;48.010;11.326;2024-02-26T12:05:17;18.40;74.70
21298;DHT22;10808;48.010;11.326;2024-02-26T12:08:27;18.40;73.90
21298;DHT22;10808;48.010;11.326;2024-02-26T12:10:36;18.30;72.60
21298;DHT22;10808;48.010;11.326;2024-02-26T12:13:07;18.30;73.80
21298;DHT22;10808;48.010;11.326;2024-02-26T12:15:38;18.30;73.80
21298;DHT22;10808;48.010;11.326;2024-02-26T12:18:06;18.30;74.80
21298;DHT22;10808;48.010;11.326;2024-02-26T12:20:34;18.60;74.30
21298;DHT22;10808;48.010;11.326;2024-02-26T12:23:02;18.80;75.30
21298;DHT22;10808;48.010;11.326;2024-02-26T12:25:30;18.90;73.10
21298;DHT22;10808;48.010;11.326;2024-02-26T12:27:57;18.70;71.40
21298;DHT22;10808;48.010;11.326;2024-02-26T12:30:24;18.70;71.30
21298;DHT22;10808;48.010;11.326;2024-02-26T12:32:58;18.70;72.70
21298;DHT22;10808;48.010;11.326;2024-02-26T12:35:27;18.80;71.20
21298;DHT22;10808;48.010;11.326;2024-02-26T12:37:54;18.80;70.60
21298;DHT22;10808;48.010;11.326;2024-02-26T12:40:21;18.80;69.10
21298;DHT22;10808;48.010;11.326;2024-02-26T12:42:47;18.70;70.00
21298;DHT22;10808;48.010;11.326;2024-02-26T12:45:14;18.70;71.00
21298;DHT22;10808;48.010;11.326;2024-02-26T12:47:42;18.60;66.70
21298;DHT22;10808;48.010;11.326;2024-02-26T12:50:09;18.60;68.60
21298;DHT22;10808;48.010;11.326;2024-02-26T12:52:38;18.50;67.00
21298;DHT22;10808;48.010;11.326;2024-02-26T12:55:05;18.40;66.40
21298;DHT22;10808;48.010;11.326;2024-02-26T12:57:37;18.10;65.10
21298;DHT22;10808;48.010;11.326;2024-02-26T13:00:05;17.90;65.60
21298;DHT22;10808;48.010;11.326;2024-02-26T13:02:32;17.80;66.20
21298;DHT22;10808;48.010;11.326;2024-02-26T13:05:00;17.60;67.60
21298;DHT22;10808;48.010;11.326;2024-02-26T13:07:27;17.60;68.80
21298;DHT22;10808;48.010;11.326;2024-02-26T13:09:53;17.50;67.70
21298;DHT22;10808;48.010;11.326;2024-02-26T13:12:20;17.40;67.50
21298;DHT22;10808;48.010;11.326;2024-02-26T13:14:46;17.40;67.30
21298;DHT22;10808;48.010;11.326;2024-02-26T13:17:12;17.40;69.70
21298;DHT22;10808;48.010;11.326;2024-02-26T13:19:49;17.40;68.40
21298;DHT22;10808;48.010;11.326;2024-02-26T13:22:16;17.30;69.30
21298;DHT22;10808;48.010;11.326;2024-02-26T13:24:42;17.20;68.20
21298;DHT22;10808;48.010;11.326;2024-02-26T13:27:08;17.20;67.50
21298;DHT22;10808;48.010;11.326;2024-02-26T13:29:34;17.00;67.20
21298;DHT22;10808;48.010;11.326;2024-02-26T13:32:00;17.00;68.10
21298;DHT22;10808;48.010;11.326;2024-02-26T13:34:27;17.00;69.00
21298;DHT22;10808;48.010;11.326;2024-02-26T13:36:54;16.90;69.10
21298;DHT22;10808;48.010;11.326;2024-02-26T13:39:24;16.90;70.40
21298;DHT22;10808;48.010;11.326;2024-02-26T13:41:51;16.80;69.80
21298;DHT22;10808;48.010;11.326;2024-02-26T13:44:21;16.80;70.30
21298;DHT22;10808;48.010;11.326;2024-02-26T13:46:47;16.60;69.90
21298;DHT22;10808;48.010;11.326;2024-02-26T13:49:22;16.50;69.70
21298;DHT22;10808;48.010;11.326;2024-02-26T13:51:49;16.50;69.30
21298;DHT22;10808;48.010;11.326;2024-02-26T13:54:15;16.40;68.50
21298;DHT22;10808;48.010;11.326;2024-02-26T13:56:41;16.40;70.20
21298;DHT22;10808;48.010;11.326;2024-02-26T13:59:07;16.30;70.20
21298;DHT22;10808;48.010;11.326;2024-02-26T14:01:33;16.20;70.70
21298;DHT22;10808;48.010;11.326;2024-02-26T14:03:59;16.20;70.70
21298;DHT22;10808;48.010;11.326;2024-02-26T14:06:27;16.20;73.00
21298;DHT22;10808;48.010;11.326;2024-02-26T14:08:53;16.20;73.00
21298;DHT22;10808;48.010;11.326;2024-02-26T14:11:20;16.30;73.20
21298;DHT22;10808;48.010;11.326;2024-02-26T14:13:46;16.20;74.20
21298;DHT22;10808;48.010;11.326;2024-02-26T14:16:13;16.10;73.20
21298;DHT22;10808;48.010;11.326;2024-02-26T14:18:40;16.10;72.40
21298;DHT22;10808;48.010;11.326;2024-02-26T14:21:06;16.10;72.50
21298;DHT22;10808;48.010;11.326;2024-02-26T14:23:32;16.10;74.90
21298;DHT22;10808;48.010;11.326;2024-02-26T14:25:58;16.00;76.00
21298;DHT22;10808;48.010;11.326;2024-02-26T14:28:26;16.10;76.10
21298;DHT22;10808;48.010;11.326;2024-02-26T14:30:53;16.00;72.50
21298;DHT22;10808;48.010;11.326;2024-02-26T14:33:20;15.90;77.20
21298;DHT22;10808;48.010;11.326;2024-02-26T14:35:46;15.90;78.50
21298;DHT22;10808;48.010;11.326;2024-02-26T14:38:12;15.80;78.20
21298;DHT22;10808;48.010;11.326;2024-02-26T14:40:38;15.80;77.10
21298;DHT22;10808;48.010;11.326;2024-02-26T14:43:04;15.80;78.20
21298;DHT22;10808;48.010;11.326;2024-02-26T14:45:30;15.70;75.70
21298;DHT22;10808;48.010;11.326;2024-02-26T14:47:57;15.70;77.90
21298;DHT22;10808;48.010;11.326;2024-02-26T14:50:24;15.70;81.20
21298;DHT22;10808;48.010;11.326;2024-02-26T14:52:50;15.60;79.70
21298;DHT22;10808;48.010;11.326;2024-02-26T14:55:16;15.50;80.50
21298;DHT22;10808;48.010;11.326;2024-02-26T14:57:42;15.50;79.20
21298;DHT22;10808;48.010;11.326;2024-02-26T15:00:08;15.40;79.20
21298;DHT22;10808;48.010;11.326;2024-02-26T15:02:35;15.40;79.20
21298;DHT22;10808;48.010;11.326;2024-02-26T15:05:01;15.30;78.20
21298;DHT22;10808;48.010;11.326;2024-02-26T15:07:27;15.20;79.00
21298;DHT22;10808;48.010;11.326;2024-02-26T15:09:53;15.00;78.80
21298;DHT22;10808;48.010;11.326;2024-02-26T15:12:23;14.90;78.60
21298;DHT22;10808;48.010;11.326;2024-02-26T15:14:49;14.80;78.90
21298;DHT22;10808;48.010;11.326;2024-02-26T15:17:15;14.60;78.30
21298;DHT22;10808;48.010;11.326;2024-02-26T15:19:41;14.60;81.90
21298;DHT22;10808;48.010;11.326;2024-02-26T15:22:07;14.50;84.10
21298;DHT22;10808;48.010;11.326;2024-02-26T15:24:33;14.50;85.80
21298;DHT22;10808;48.010;11.326;2024-02-26T15:26:59;14.50;84.50
21298;DHT22;10808;48.010;11.326;2024-02-26T15:29:28;14.50;83.90